Time;durP1;ratioP1;P1;durP2;ratioP2;P2;SDS_P1;SDS_P2;PMS_P1;PMS_P2;Temp;Humidity;BMP_temperature;BMP_pressure;BME280_temperature;BME280_humidity;BME280_pressure;Samples;Min_cycle;Max_cycle;Signal;HPM_P1;HPM_P2
2021/06/30 00:01:17;;;;;;;20.92;9.43;;;15.30;99.90;;;;;;3588557;40;20113;-77
2021/06/30 00:03:44;;;;;;;18.38;7.97;;;15.30;99.90;;;;;;3597009;39;20302;-76
2021/06/30 00:06:10;;;;;;;17.42;9.65;;;15.30;99.90;;;;;;3603458;39;20043;-75
2021/06/30 00:08:36;;;;;;;20.67;8.80;;;15.30;99.90;;;;;;3596818;39;20032;-76
2021/06/30 00:11:03;;;;;;;20.55;9.40;;;15.40;99.90;;;;;;3586978;40;20553;-76
2021/06/30 00:13:29;;;;;;;16.13;7.88;;;15.40;99.90;;;;;;3596695;39;20043;-76
2021/06/30 00:15:55;;;;;;;21.25;9.52;;;15.40;99.90;;;;;;3593741;40;20409;-76
2021/06/30 00:18:23;;;;;;;18.58;8.88;;;15.40;99.90;;;;;;3598045;39;20427;-76
2021/06/30 00:20:50;;;;;;;15.57;8.35;;;15.40;99.90;;;;;;3596797;40;20132;-77
2021/06/30 00:23:16;;;;;;;18.58;9.15;;;15.40;99.90;;;;;;3596118;40;20128;-76
2021/06/30 00:25:42;;;;;;;16.23;7.78;;;15.40;99.90;;;;;;3596543;40;20039;-77
2021/06/30 00:28:08;;;;;;;18.92;8.93;;;15.40;99.90;;;;;;3596292;40;20040;-76
2021/06/30 00:30:34;;;;;;;16.98;7.53;;;15.40;99.90;;;;;;3600679;39;20338;-76
2021/06/30 00:33:01;;;;;;;16.65;9.60;;;15.40;99.90;;;;;;3595979;39;20055;-77
2021/06/30 00:35:27;;;;;;;16.05;8.88;;;15.40;99.90;;;;;;3596498;39;20036;-76
2021/06/30 00:37:53;;;;;;;16.45;8.63;;;15.40;99.90;;;;;;3596654;40;20047;-77
2021/06/30 00:40:19;;;;;;;21.60;9.70;;;15.40;99.90;;;;;;3586990;39;20062;-76
2021/06/30 00:42:45;;;;;;;15.60;9.27;;;15.40;99.90;;;;;;3596487;40;20056;-76
2021/06/30 00:45:17;;;;;;;16.73;9.65;;;15.40;99.90;;;;;;3596279;40;20051;-76
2021/06/30 00:47:43;;;;;;;22.38;11.60;;;15.40;99.90;;;;;;3587424;40;20040;-76
2021/06/30 00:50:10;;;;;;;18.70;9.57;;;15.40;99.90;;;;;;3587000;40;20136;-76
2021/06/30 00:52:35;;;;;;;19.23;9.45;;;15.40;99.90;;;;;;3596719;40;20063;-75
2021/06/30 00:55:01;;;;;;;19.30;9.57;;;15.40;99.90;;;;;;3596450;40;20044;-76
2021/06/30 00:57:28;;;;;;;22.38;10.38;;;15.40;99.90;;;;;;3588721;40;20052;-76
2021/06/30 00:59:55;;;;;;;21.20;10.13;;;15.40;99.90;;;;;;3596593;39;20242;-76
2021/06/30 01:02:22;;;;;;;23.30;10.65;;;15.40;99.90;;;;;;3596446;39;20043;-78
2021/06/30 01:04:48;;;;;;;21.10;11.05;;;15.40;99.90;;;;;;3595488;39;20051;-76
2021/06/30 01:07:14;;;;;;;16.00;10.95;;;15.40;99.90;;;;;;3596478;40;20047;-77
2021/06/30 01:09:39;;;;;;;19.35;10.65;;;15.40;99.90;;;;;;3596451;40;20036;-77
2021/06/30 01:12:06;;;;;;;22.00;11.25;;;15.40;99.90;;;;;;3596477;40;20297;-76
2021/06/30 01:14:34;;;;;;;22.08;9.90;;;15.40;99.90;;;;;;3596459;39;20046;-75
2021/06/30 01:17:04;;;;;;;21.58;10.60;;;15.50;99.90;;;;;;3596327;39;20323;-77
2021/06/30 01:19:30;;;;;;;20.38;11.43;;;15.40;99.90;;;;;;3596466;39;20042;-76
2021/06/30 01:21:57;;;;;;;15.70;10.48;;;15.40;99.90;;;;;;3596070;39;20043;-76
2021/06/30 01:24:24;;;;;;;14.90;8.38;;;15.40;99.90;;;;;;3596267;39;20047;-76
2021/06/30 01:26:50;;;;;;;27.75;10.55;;;15.40;99.90;;;;;;3595530;40;20219;-76
2021/06/30 01:29:19;;;;;;;15.13;8.68;;;15.50;99.90;;;;;;3596153;39;20609;-76
2021/06/30 01:31:45;;;;;;;14.00;7.03;;;15.50;99.90;;;;;;3595687;39;20031;-76
2021/06/30 01:34:12;;;;;;;20.83;9.90;;;15.50;99.90;;;;;;3595640;39;20043;-78
2021/06/30 01:36:55;;;;;;;17.60;8.88;;;15.50;99.90;;;;;;3596304;40;20035;-75
2021/06/30 01:39:24;;;;;;;31.05;9.85;;;15.50;99.90;;;;;;3592974;40;20032;-76
2021/06/30 01:41:50;;;;;;;15.15;7.32;;;15.50;99.90;;;;;;3596074;40;20090;-75
2021/06/30 01:44:16;;;;;;;16.33;9.65;;;15.50;99.90;;;;;;3588143;40;20043;-75
2021/06/30 01:46:43;;;;;;;13.95;7.70;;;15.50;99.90;;;;;;3595795;39;20047;-76
2021/06/30 01:49:10;;;;;;;18.45;8.05;;;15.50;99.90;;;;;;3603191;39;20047;-77
2021/06/30 01:51:36;;;;;;;17.88;8.05;;;15.50;99.90;;;;;;3603530;39;20052;-77
2021/06/30 01:54:04;;;;;;;19.45;9.02;;;15.50;99.90;;;;;;3595077;40;20048;-75
2021/06/30 01:56:32;;;;;;;21.45;9.30;;;15.50;99.90;;;;;;3596108;39;20039;-76
2021/06/30 01:59:02;;;;;;;18.00;9.25;;;15.50;99.90;;;;;;3595350;39;20113;-76
2021/06/30 02:01:29;;;;;;;26.17;11.13;;;15.50;99.90;;;;;;3596366;40;20118;-77
2021/06/30 02:03:59;;;;;;;17.15;9.13;;;15.50;99.90;;;;;;3585993;40;20051;-75
2021/06/30 02:06:26;;;;;;;21.85;9.20;;;15.50;99.90;;;;;;3596043;40;20055;-77
2021/06/30 02:08:56;;;;;;;19.60;9.02;;;15.50;99.90;;;;;;3595900;40;20044;-76
2021/06/30 02:11:25;;;;;;;22.52;10.70;;;15.50;99.90;;;;;;3603320;39;20274;-76
2021/06/30 02:13:52;;;;;;;14.13;7.97;;;15.50;99.90;;;;;;3596158;39;20048;-76
2021/06/30 02:16:19;;;;;;;18.45;11.02;;;15.50;99.90;;;;;;3586870;40;20051;-77
2021/06/30 02:18:46;;;;;;;14.75;8.02;;;15.40;99.90;;;;;;3596236;39;20043;-76
2021/06/30 02:21:11;;;;;;;19.95;9.82;;;15.40;99.90;;;;;;3595783;39;20066;-76
2021/06/30 02:23:37;;;;;;;16.75;8.15;;;15.50;99.90;;;;;;3603884;39;20128;-75
2021/06/30 02:26:03;;;;;;;12.77;8.30;;;15.40;99.90;;;;;;3595736;39;20060;-76
2021/06/30 02:28:29;;;;;;;13.77;8.32;;;15.40;99.90;;;;;;3596663;39;20051;-77
2021/06/30 02:30:55;;;;;;;15.45;9.07;;;15.40;99.90;;;;;;3597321;39;20395;-77
2021/06/30 02:33:21;;;;;;;16.38;9.98;;;15.40;99.90;;;;;;3594672;39;20135;-76
2021/06/30 02:35:48;;;;;;;15.32;9.98;;;15.40;99.90;;;;;;3593136;40;20039;-76
2021/06/30 02:38:13;;;;;;;11.40;8.63;;;15.40;99.90;;;;;;3596934;39;20071;-76
2021/06/30 02:40:40;;;;;;;19.17;8.52;;;15.40;99.90;;;;;;3597711;39;20043;-76
2021/06/30 02:43:06;;;;;;;16.17;8.82;;;15.30;99.90;;;;;;3596981;39;20040;-76
2021/06/30 02:45:32;;;;;;;20.50;9.43;;;15.30;99.90;;;;;;3590302;40;20040;-76
2021/06/30 02:47:58;;;;;;;18.58;9.10;;;15.30;99.90;;;;;;3592228;40;20430;-76
2021/06/30 02:50:24;;;;;;;12.07;6.63;;;15.30;99.90;;;;;;3597496;39;20070;-76
2021/06/30 02:52:51;;;;;;;14.68;8.40;;;15.30;99.90;;;;;;3597289;39;20078;-76
2021/06/30 02:55:18;;;;;;;14.68;8.82;;;15.30;99.90;;;;;;3596002;40;20072;-77
2021/06/30 02:57:44;;;;;;;19.23;8.45;;;15.30;99.90;;;;;;3592630;40;20044;-76
2021/06/30 03:00:15;;;;;;;18.42;9.20;;;15.30;99.90;;;;;;3587733;40;20060;-76
2021/06/30 03:02:41;;;;;;;13.98;8.93;;;15.40;99.90;;;;;;3597179;40;20206;-76
2021/06/30 03:05:08;;;;;;;19.25;7.85;;;15.40;99.90;;;;;;3596779;39;20051;-76
2021/06/30 03:07:33;;;;;;;24.33;8.88;;;15.40;99.90;;;;;;3596938;39;20044;-76
2021/06/30 03:10:00;;;;;;;14.13;6.88;;;15.40;99.90;;;;;;3591715;40;20032;-76
2021/06/30 03:12:28;;;;;;;11.73;6.93;;;15.30;99.90;;;;;;3597161;39;20024;-76
2021/06/30 03:14:55;;;;;;;9.20;6.25;;;15.30;99.90;;;;;;3597246;40;20047;-76
2021/06/30 03:17:21;;;;;;;17.27;6.03;;;15.30;99.90;;;;;;3589235;40;20050;-75
2021/06/30 03:19:47;;;;;;;11.65;5.28;;;15.30;99.90;;;;;;3597223;39;20035;-77
2021/06/30 03:22:13;;;;;;;5.60;4.47;;;15.30;99.80;;;;;;3596458;39;20035;-76
2021/06/30 03:24:39;;;;;;;6.40;3.55;;;15.30;99.70;;;;;;3596898;39;20613;-76
2021/06/30 03:27:04;;;;;;;7.25;4.65;;;15.20;99.40;;;;;;3596601;40;20039;-77
2021/06/30 03:29:30;;;;;;;7.05;4.55;;;15.20;99.40;;;;;;3597111;39;20129;-77
2021/06/30 03:31:56;;;;;;;9.07;4.78;;;15.20;99.50;;;;;;3596739;40;20047;-77
2021/06/30 03:34:22;;;;;;;9.55;5.07;;;15.20;99.60;;;;;;3587687;40;20329;-78
2021/06/30 03:36:48;;;;;;;10.23;6.15;;;15.20;99.80;;;;;;3579870;40;20452;-76
2021/06/30 03:39:13;;;;;;;10.02;7.20;;;15.20;99.80;;;;;;3596826;39;20037;-76
2021/06/30 03:41:39;;;;;;;14.02;7.47;;;15.20;99.90;;;;;;3596038;40;20067;-76
2021/06/30 03:44:05;;;;;;;14.52;7.28;;;15.30;99.90;;;;;;3596441;39;20332;-77
2021/06/30 03:46:31;;;;;;;11.93;7.40;;;15.30;99.90;;;;;;3579398;40;20047;-76
2021/06/30 03:48:57;;;;;;;11.70;6.93;;;15.30;99.90;;;;;;3596574;40;20044;-76
2021/06/30 03:51:23;;;;;;;16.67;7.07;;;15.30;99.90;;;;;;3596904;40;20047;-77
2021/06/30 03:53:49;;;;;;;11.95;7.38;;;15.30;99.90;;;;;;3597276;39;20166;-77
2021/06/30 03:56:15;;;;;;;11.02;8.43;;;15.30;99.90;;;;;;3596744;39;20087;-76
2021/06/30 03:58:41;;;;;;;18.15;7.75;;;15.30;99.90;;;;;;3587546;40;20044;-76
2021/06/30 04:01:06;;;;;;;11.93;6.78;;;15.30;99.90;;;;;;3596518;40;20051;-76
2021/06/30 04:03:32;;;;;;;20.15;9.13;;;15.30;99.90;;;;;;3601265;39;20243;-76
2021/06/30 04:05:58;;;;;;;15.68;8.15;;;15.30;99.90;;;;;;3596521;40;20055;-76
2021/06/30 04:08:24;;;;;;;18.08;8.73;;;15.30;99.90;;;;;;3604408;39;20632;-77
2021/06/30 04:10:50;;;;;;;17.13;7.57;;;15.30;99.90;;;;;;3596651;40;20048;-75
2021/06/30 04:13:16;;;;;;;10.70;7.53;;;15.30;99.90;;;;;;3596556;39;20056;-76
2021/06/30 04:15:43;;;;;;;12.73;6.82;;;15.30;99.90;;;;;;3596776;39;20040;-75
2021/06/30 04:18:10;;;;;;;12.93;7.10;;;15.30;99.90;;;;;;3595498;39;20059;-76
2021/06/30 04:20:38;;;;;;;10.90;7.68;;;15.30;99.90;;;;;;3596968;40;20490;-76
2021/06/30 04:23:04;;;;;;;17.52;7.18;;;15.30;99.90;;;;;;3596312;40;20050;-76
2021/06/30 04:25:30;;;;;;;16.35;7.25;;;15.30;99.90;;;;;;3596884;40;20170;-76
2021/06/30 04:27:56;;;;;;;13.93;7.70;;;15.30;99.90;;;;;;3596662;39;20055;-75
2021/06/30 04:30:21;;;;;;;14.35;8.40;;;15.30;99.90;;;;;;3596830;39;20545;-76
2021/06/30 04:32:47;;;;;;;15.40;7.80;;;15.30;99.90;;;;;;3596658;39;20036;-76
2021/06/30 04:35:13;;;;;;;13.38;8.93;;;15.30;99.90;;;;;;3603690;39;20385;-76
2021/06/30 04:37:39;;;;;;;16.92;10.10;;;15.40;99.90;;;;;;3596838;39;20050;-75
2021/06/30 04:40:06;;;;;;;15.68;9.65;;;15.40;99.90;;;;;;3596251;39;20044;-75
2021/06/30 04:42:32;;;;;;;21.20;9.85;;;15.40;99.90;;;;;;3596943;40;20044;-75
2021/06/30 04:44:58;;;;;;;13.45;9.65;;;15.40;99.90;;;;;;3596388;40;20048;-76
2021/06/30 04:47:24;;;;;;;19.17;9.43;;;15.50;99.90;;;;;;3596450;39;20367;-75
2021/06/30 04:49:50;;;;;;;24.38;9.48;;;15.50;99.90;;;;;;3596250;39;20056;-76
2021/06/30 04:52:16;;;;;;;17.38;9.05;;;15.50;99.80;;;;;;3595769;39;20052;-76
2021/06/30 04:54:41;;;;;;;13.75;8.10;;;15.50;99.80;;;;;;3596242;39;20048;-76
2021/06/30 04:57:07;;;;;;;14.40;7.63;;;15.50;99.60;;;;;;3593479;39;20040;-77
2021/06/30 04:59:33;;;;;;;21.23;9.00;;;15.50;99.80;;;;;;3596113;39;20371;-75
2021/06/30 05:01:59;;;;;;;18.25;9.55;;;15.50;99.80;;;;;;3595971;39;20050;-76
2021/06/30 05:04:25;;;;;;;20.48;9.57;;;15.60;99.80;;;;;;3588749;40;20048;-76
2021/06/30 05:06:51;;;;;;;22.40;10.38;;;15.60;99.70;;;;;;3589652;39;20035;-76
2021/06/30 05:09:16;;;;;;;18.15;9.50;;;15.60;99.70;;;;;;3595568;39;20055;-76
2021/06/30 05:11:45;;;;;;;11.98;5.80;;;15.60;99.70;;;;;;3595913;40;20062;-76
2021/06/30 05:14:13;;;;;;;21.45;9.50;;;15.60;99.60;;;;;;3580061;40;20036;-76
2021/06/30 05:16:39;;;;;;;18.40;8.23;;;15.60;99.60;;;;;;3595889;39;20243;-76
2021/06/30 05:19:05;;;;;;;17.38;8.40;;;15.60;99.50;;;;;;3595426;39;20051;-76
2021/06/30 05:21:31;;;;;;;13.93;8.13;;;15.60;99.60;;;;;;3595970;39;20050;-76
2021/06/30 05:26:22;;;;;;;17.63;9.48;;;15.70;99.50;;;;;;3618211;22;20071;-75
2021/06/30 05:28:48;;;;;;;16.65;7.55;;;15.60;99.40;;;;;;3604654;39;20039;-75
2021/06/30 05:31:14;;;;;;;12.02;6.85;;;15.60;99.50;;;;;;3603705;39;20502;-75
2021/06/30 05:33:39;;;;;;;13.65;6.43;;;15.60;99.40;;;;;;3604938;39;20035;-75
2021/06/30 05:36:05;;;;;;;11.77;5.93;;;15.60;99.40;;;;;;3601681;39;20043;-76
2021/06/30 05:38:33;;;;;;;17.50;7.32;;;15.60;99.30;;;;;;3603769;39;20364;-75
2021/06/30 05:40:59;;;;;;;14.05;7.13;;;15.60;99.40;;;;;;3604194;39;20172;-75
2021/06/30 05:43:25;;;;;;;12.82;7.15;;;15.60;99.50;;;;;;3611480;39;20114;-75
2021/06/30 05:45:50;;;;;;;10.85;7.35;;;15.60;99.50;;;;;;3606059;39;20051;-75
2021/06/30 05:48:16;;;;;;;15.10;5.85;;;15.60;99.50;;;;;;3605674;39;20043;-76
2021/06/30 05:50:42;;;;;;;11.55;5.20;;;15.60;99.50;;;;;;3599240;39;20040;-75
2021/06/30 05:53:08;;;;;;;8.68;5.63;;;15.70;99.60;;;;;;3605852;39;20047;-76
2021/06/30 05:55:34;;;;;;;11.30;5.80;;;15.70;99.60;;;;;;3596701;39;20075;-75
2021/06/30 05:58:00;;;;;;;14.80;6.25;;;15.70;99.50;;;;;;3605689;39;20327;-75
2021/06/30 06:00:26;;;;;;;12.27;4.97;;;15.70;99.40;;;;;;3596914;39;20035;-76
2021/06/30 06:02:51;;;;;;;15.73;7.30;;;15.70;99.40;;;;;;3605704;39;20036;-75
2021/06/30 06:05:17;;;;;;;13.98;6.95;;;15.70;99.60;;;;;;3588373;39;20046;-75
2021/06/30 06:07:43;;;;;;;13.43;5.97;;;15.70;99.60;;;;;;3606246;39;20046;-75
2021/06/30 06:10:12;;;;;;;12.68;6.82;;;15.80;99.50;;;;;;3605695;39;20132;-76
2021/06/30 06:12:39;;;;;;;11.07;6.13;;;15.80;99.60;;;;;;3606008;39;20124;-76
2021/06/30 06:15:09;;;;;;;14.43;5.57;;;15.80;99.60;;;;;;3605716;39;20051;-75
2021/06/30 06:17:36;;;;;;;7.90;5.30;;;15.80;99.60;;;;;;3602814;39;20038;-75
2021/06/30 06:20:05;;;;;;;8.68;6.25;;;15.70;99.60;;;;;;3606131;39;20129;-76
2021/06/30 06:22:31;;;;;;;14.95;6.88;;;15.70;99.60;;;;;;3606006;39;20142;-75
2021/06/30 06:24:57;;;;;;;12.00;6.20;;;15.70;99.70;;;;;;3602149;39;20042;-75
2021/06/30 06:27:23;;;;;;;14.40;6.78;;;15.80;99.70;;;;;;3602636;39;20086;-76
2021/06/30 06:29:50;;;;;;;12.85;6.82;;;15.80;99.70;;;;;;3601405;39;20097;-75
2021/06/30 06:32:17;;;;;;;13.57;6.22;;;15.70;99.60;;;;;;3602680;39;20125;-75
2021/06/30 06:34:43;;;;;;;10.93;7.15;;;15.80;99.70;;;;;;3604647;39;20050;-75
2021/06/30 06:37:12;;;;;;;11.20;5.93;;;15.80;99.70;;;;;;3604243;39;20035;-75
2021/06/30 06:39:38;;;;;;;13.55;6.57;;;15.80;99.80;;;;;;3596665;39;20048;-75
2021/06/30 06:42:06;;;;;;;12.73;6.60;;;15.90;99.80;;;;;;3602094;39;20117;-75
2021/06/30 06:44:34;;;;;;;15.23;6.70;;;15.90;99.70;;;;;;3600682;39;20043;-76
2021/06/30 06:47:00;;;;;;;8.35;5.60;;;15.80;99.70;;;;;;3602675;39;20047;-76
2021/06/30 06:49:25;;;;;;;9.68;6.05;;;15.90;99.70;;;;;;3601356;39;20043;-75
2021/06/30 06:51:51;;;;;;;15.63;7.40;;;15.80;99.70;;;;;;3603749;39;20157;-75
2021/06/30 06:54:17;;;;;;;9.95;6.07;;;15.90;99.90;;;;;;3603647;39;20803;-75
2021/06/30 06:56:43;;;;;;;13.90;5.70;;;15.90;99.90;;;;;;3603052;39;20043;-75
2021/06/30 06:59:08;;;;;;;10.32;6.55;;;15.90;99.70;;;;;;3602726;39;20039;-75
2021/06/30 07:01:35;;;;;;;10.73;5.70;;;15.90;99.70;;;;;;3601615;39;20440;-75
2021/06/30 07:04:00;;;;;;;11.30;5.63;;;15.80;99.70;;;;;;3602017;39;20611;-76
2021/06/30 07:06:26;;;;;;;15.48;6.80;;;15.80;99.90;;;;;;3604706;39;20039;-75
2021/06/30 07:08:52;;;;;;;12.15;6.32;;;15.80;99.90;;;;;;3604165;39;20066;-76
2021/06/30 07:11:18;;;;;;;13.02;5.93;;;15.80;99.90;;;;;;3605130;39;20108;-76
2021/06/30 07:13:44;;;;;;;14.02;6.70;;;15.80;99.90;;;;;;3603380;39;20060;-76
2021/06/30 07:16:10;;;;;;;13.00;5.65;;;15.90;99.90;;;;;;3602741;39;20079;-76
2021/06/30 07:18:36;;;;;;;9.90;5.05;;;15.90;99.90;;;;;;3604231;39;20055;-76
2021/06/30 07:21:04;;;;;;;12.93;7.10;;;15.90;99.80;;;;;;3601596;39;20052;-76
2021/06/30 07:23:31;;;;;;;12.32;6.80;;;16.00;99.80;;;;;;3605325;39;20036;-76
2021/06/30 07:25:58;;;;;;;10.85;6.50;;;15.90;99.80;;;;;;3603499;39;20032;-75
2021/06/30 07:28:25;;;;;;;8.63;5.53;;;15.90;99.80;;;;;;3606023;39;20070;-76
2021/06/30 07:30:51;;;;;;;17.08;7.72;;;16.00;99.90;;;;;;3603917;39;20035;-76
2021/06/30 07:33:17;;;;;;;11.70;6.63;;;16.00;99.90;;;;;;3606226;39;20040;-76
2021/06/30 07:35:43;;;;;;;13.32;6.65;;;16.00;99.90;;;;;;3605979;39;20043;-76
2021/06/30 07:38:09;;;;;;;11.68;6.70;;;16.00;99.90;;;;;;3601249;39;20581;-76
2021/06/30 07:40:35;;;;;;;11.35;5.65;;;16.00;99.90;;;;;;3601912;39;20039;-76
2021/06/30 07:43:02;;;;;;;10.15;7.20;;;15.90;99.90;;;;;;3601929;39;20042;-75
2021/06/30 07:45:28;;;;;;;10.30;6.25;;;15.90;99.90;;;;;;3604865;39;20383;-75
2021/06/30 07:47:54;;;;;;;12.07;8.32;;;15.90;99.90;;;;;;3603715;39;20051;-76
2021/06/30 07:50:20;;;;;;;8.15;6.80;;;15.90;99.90;;;;;;3605718;39;20039;-75
2021/06/30 07:52:48;;;;;;;16.13;7.38;;;15.90;99.90;;;;;;3604278;39;20140;-77
2021/06/30 07:55:15;;;;;;;12.07;6.25;;;15.90;99.90;;;;;;3606154;39;20043;-76
2021/06/30 07:57:42;;;;;;;12.70;7.82;;;16.00;99.90;;;;;;3605094;39;20031;-76
2021/06/30 08:00:08;;;;;;;12.93;8.30;;;15.90;99.90;;;;;;3601556;39;20578;-77
2021/06/30 08:02:35;;;;;;;11.75;7.40;;;16.00;99.90;;;;;;3606051;39;20035;-76
2021/06/30 08:05:02;;;;;;;21.33;9.18;;;16.00;99.90;;;;;;3605661;39;20042;-75
2021/06/30 08:07:28;;;;;;;16.92;8.63;;;15.90;99.90;;;;;;3606989;39;20128;-76
2021/06/30 08:09:54;;;;;;;13.02;6.97;;;16.00;99.90;;;;;;3602413;39;20048;-76
2021/06/30 08:12:20;;;;;;;10.73;6.57;;;15.90;99.90;;;;;;3601192;39;20047;-76
2021/06/30 08:14:47;;;;;;;11.25;7.22;;;16.00;99.90;;;;;;3603579;39;20035;-76
2021/06/30 08:17:13;;;;;;;14.48;7.65;;;16.00;99.90;;;;;;3602502;39;20035;-76
2021/06/30 08:19:38;;;;;;;14.77;7.72;;;16.00;99.90;;;;;;3604975;39;20043;-77
2021/06/30 08:22:10;;;;;;;17.35;8.23;;;16.00;99.90;;;;;;3604274;39;20318;-76
2021/06/30 08:24:37;;;;;;;14.50;7.63;;;15.90;99.90;;;;;;3605239;39;20055;-76
2021/06/30 08:27:04;;;;;;;11.90;8.95;;;15.90;99.90;;;;;;3605181;39;20307;-76
2021/06/30 08:29:31;;;;;;;12.80;7.93;;;15.80;99.90;;;;;;3605665;39;20036;-76
2021/06/30 08:31:57;;;;;;;13.88;7.25;;;15.80;99.90;;;;;;3606407;39;20050;-75
2021/06/30 08:34:27;;;;;;;10.32;7.68;;;15.80;99.90;;;;;;3600182;39;20536;-76
2021/06/30 08:36:59;;;;;;;15.55;7.70;;;15.80;99.90;;;;;;3603894;39;20310;-76
2021/06/30 08:39:24;;;;;;;14.20;6.97;;;15.80;99.90;;;;;;3600183;39;20556;-76
2021/06/30 08:41:50;;;;;;;15.52;7.35;;;15.80;99.90;;;;;;3587014;39;20051;-76
2021/06/30 08:44:16;;;;;;;10.75;6.80;;;15.90;99.90;;;;;;3603508;39;20036;-77
2021/06/30 08:46:44;;;;;;;12.32;6.95;;;15.90;99.90;;;;;;3604890;39;20055;-77
2021/06/30 08:49:12;;;;;;;12.35;7.93;;;15.90;99.90;;;;;;3604885;39;20048;-78
2021/06/30 08:51:39;;;;;;;14.55;6.20;;;15.90;99.90;;;;;;3605689;39;20039;-76
2021/06/30 08:54:10;;;;;;;22.40;6.95;;;15.80;99.90;;;;;;3606139;39;20140;-76
2021/06/30 08:56:36;;;;;;;10.90;7.57;;;15.70;99.90;;;;;;3604397;39;20038;-76
2021/06/30 08:59:02;;;;;;;9.43;6.97;;;15.80;99.90;;;;;;3602098;39;20148;-77
2021/06/30 09:01:30;;;;;;;14.50;8.73;;;15.70;99.90;;;;;;3602679;39;20055;-77
2021/06/30 09:03:57;;;;;;;12.85;7.60;;;15.80;99.90;;;;;;3605348;39;20349;-76
2021/06/30 09:06:24;;;;;;;19.30;9.40;;;15.80;99.90;;;;;;3603199;39;20119;-76
2021/06/30 09:08:50;;;;;;;13.70;7.75;;;15.90;99.90;;;;;;3601245;39;20639;-76
2021/06/30 09:11:20;;;;;;;17.33;8.38;;;15.90;99.90;;;;;;3603000;39;20035;-76
2021/06/30 09:13:51;;;;;;;12.80;7.45;;;16.00;99.90;;;;;;3599210;39;20047;-76
2021/06/30 09:16:17;;;;;;;14.98;6.85;;;16.00;99.90;;;;;;3604414;39;20036;-76
2021/06/30 09:18:49;;;;;;;16.35;6.85;;;16.00;99.90;;;;;;3604113;39;20039;-77
2021/06/30 09:21:27;;;;;;;10.77;6.93;;;16.00;99.90;;;;;;3605239;39;20338;-76
2021/06/30 09:24:18;;;;;;;11.38;6.47;;;16.10;99.90;;;;;;3605252;39;20043;-75
2021/06/30 09:26:49;;;;;;;13.18;7.07;;;16.10;99.90;;;;;;3606153;39;20047;-75
2021/06/30 09:29:17;;;;;;;13.98;7.25;;;16.10;99.90;;;;;;3603676;39;20044;-75
2021/06/30 09:31:46;;;;;;;13.25;7.50;;;16.10;99.90;;;;;;3602721;39;20047;-75
2021/06/30 09:34:13;;;;;;;9.70;6.40;;;16.20;99.90;;;;;;3601356;39;20048;-74
2021/06/30 09:36:50;;;;;;;15.20;6.28;;;16.20;99.90;;;;;;3603574;39;20133;-75
2021/06/30 09:39:16;;;;;;;12.75;6.68;;;16.20;99.90;;;;;;3599932;39;20042;-75
2021/06/30 09:41:44;;;;;;;12.77;7.38;;;16.20;99.90;;;;;;3605059;39;20047;-75
2021/06/30 09:44:20;;;;;;;10.18;6.75;;;16.20;99.90;;;;;;3603265;39;20046;-75
2021/06/30 09:46:48;;;;;;;16.70;6.90;;;16.20;99.90;;;;;;3600040;39;20035;-75
2021/06/30 09:49:18;;;;;;;15.15;7.57;;;16.20;99.90;;;;;;3605206;39;20100;-74
2021/06/30 09:51:47;;;;;;;8.82;5.28;;;16.20;99.90;;;;;;3602775;39;20047;-75
2021/06/30 09:54:18;;;;;;;6.65;4.65;;;16.20;99.90;;;;;;3602934;39;20075;-75
2021/06/30 09:56:55;;;;;;;7.75;5.88;;;16.20;99.90;;;;;;3598781;39;20353;-75
2021/06/30 09:59:26;;;;;;;10.27;6.00;;;16.20;99.90;;;;;;3603514;39;20043;-75
2021/06/30 10:01:56;;;;;;;6.65;4.82;;;16.20;99.90;;;;;;3603259;39;20048;-75
2021/06/30 10:04:37;;;;;;;9.52;5.88;;;16.20;99.90;;;;;;3601989;39;20338;-76
2021/06/30 10:07:25;;;;;;;8.48;4.57;;;16.20;99.90;;;;;;3601086;39;20035;-76
2021/06/30 10:09:51;;;;;;;7.53;6.15;;;16.20;99.90;;;;;;3599803;39;20079;-76
2021/06/30 10:12:22;;;;;;;10.27;4.75;;;16.30;99.90;;;;;;3602201;39;20032;-76
2021/06/30 10:14:48;;;;;;;7.60;4.43;;;16.40;99.90;;;;;;3599861;39;20047;-76
2021/06/30 10:17:15;;;;;;;6.95;4.32;;;16.30;99.90;;;;;;3603576;39;20044;-77
2021/06/30 10:19:42;;;;;;;9.25;5.57;;;16.30;99.90;;;;;;3605177;39;20067;-76
2021/06/30 10:22:09;;;;;;;7.32;4.88;;;16.30;99.90;;;;;;3604787;39;20051;-76
2021/06/30 10:24:37;;;;;;;12.02;7.18;;;16.40;99.90;;;;;;3604930;39;20654;-76
2021/06/30 10:27:05;;;;;;;8.90;4.80;;;16.30;99.90;;;;;;3602607;39;20036;-76
2021/06/30 10:29:38;;;;;;;6.50;3.70;;;16.30;99.90;;;;;;3600982;39;20036;-76
2021/06/30 10:32:11;;;;;;;8.40;4.38;;;16.30;99.90;;;;;;3603296;39;20054;-77
2021/06/30 10:34:46;;;;;;;5.53;3.40;;;16.30;99.90;;;;;;3600626;39;20043;-76
2021/06/30 10:37:23;;;;;;;7.55;4.50;;;16.30;99.90;;;;;;3604182;39;20314;-77
2021/06/30 10:39:52;;;;;;;5.75;3.63;;;16.30;99.90;;;;;;3601378;39;20039;-78
2021/06/30 10:42:35;;;;;;;4.57;3.60;;;16.40;99.90;;;;;;3604857;39;20044;-77
2021/06/30 10:45:21;;;;;;;6.07;3.50;;;16.40;99.90;;;;;;3605189;39;20079;-77
2021/06/30 10:47:50;;;;;;;4.38;3.85;;;16.40;99.90;;;;;;3603236;39;20032;-77
2021/06/30 10:50:19;;;;;;;4.22;3.65;;;16.50;99.90;;;;;;3602079;39;20035;-77
2021/06/30 10:52:50;;;;;;;8.55;5.32;;;16.60;99.90;;;;;;3603791;39;20249;-77
2021/06/30 10:55:37;;;;;;;6.53;4.68;;;16.60;99.90;;;;;;3603804;39;20050;-76
2021/06/30 11:00:42;;;;;;;9.48;4.45;;;16.70;99.90;;;;;;3600103;39;20092;-77
2021/06/30 11:03:27;;;;;;;5.22;4.07;;;16.80;99.90;;;;;;3604339;39;20267;-77
2021/06/30 11:06:18;;;;;;;10.15;5.45;;;16.80;99.90;;;;;;3602869;39;20120;-77
2021/06/30 11:08:57;;;;;;;7.05;4.93;;;16.80;99.90;;;;;;3598044;39;20341;-77
2021/06/30 11:11:29;;;;;;;10.80;5.10;;;16.80;99.90;;;;;;3605584;39;20039;-77
2021/06/30 11:13:57;;;;;;;11.15;5.25;;;16.80;99.90;;;;;;3602789;39;20048;-77
2021/06/30 11:16:42;;;;;;;5.95;5.05;;;16.70;99.90;;;;;;3605630;39;20059;-77
2021/06/30 11:19:15;;;;;;;7.25;4.80;;;16.70;99.90;;;;;;3606223;39;20039;-77
2021/06/30 11:21:53;;;;;;;9.05;5.85;;;16.70;99.90;;;;;;3603442;39;20043;-78
2021/06/30 11:27:17;;;;;;;11.45;4.72;;;16.70;99.90;;;;;;3603497;39;20257;-78
2021/06/30 11:29:58;;;;;;;4.78;3.95;;;16.70;99.90;;;;;;3601908;39;20615;-77
2021/06/30 11:32:37;;;;;;;6.53;3.15;;;16.70;99.80;;;;;;3603663;39;20226;-77
2021/06/30 11:35:24;;;;;;;5.03;3.47;;;16.60;99.80;;;;;;3600161;39;20035;-77
2021/06/30 11:38:16;;;;;;;5.78;3.30;;;16.60;99.70;;;;;;3605375;39;20039;-77
2021/06/30 11:40:59;;;;;;;9.00;4.10;;;16.60;99.80;;;;;;3604611;39;20046;-77
2021/06/30 11:43:29;;;;;;;6.20;3.45;;;16.50;99.80;;;;;;3602725;39;20055;-79
2021/06/30 11:45:58;;;;;;;6.82;4.50;;;16.50;99.70;;;;;;3602752;39;20047;-77
2021/06/30 11:48:27;;;;;;;8.27;3.90;;;16.40;99.90;;;;;;3602426;39;20047;-77
2021/06/30 11:51:02;;;;;;;3.78;3.20;;;16.30;99.80;;;;;;3603979;39;20051;-77
2021/06/30 11:53:31;;;;;;;5.03;3.92;;;16.30;99.90;;;;;;3602669;39;20042;-77
2021/06/30 11:55:57;;;;;;;5.10;3.63;;;16.30;99.90;;;;;;3604734;39;20036;-77
2021/06/30 11:58:37;;;;;;;7.07;3.70;;;16.30;99.80;;;;;;3601725;39;20397;-77
2021/06/30 12:01:15;;;;;;;7.40;4.68;;;16.30;99.90;;;;;;3600902;39;20337;-77
2021/06/30 12:03:41;;;;;;;7.68;4.82;;;16.30;99.90;;;;;;3602830;39;20105;-76
2021/06/30 12:06:21;;;;;;;8.07;5.30;;;16.30;99.90;;;;;;3604130;39;20039;-77
2021/06/30 12:09:07;;;;;;;5.97;4.07;;;16.30;99.90;;;;;;3604593;39;20036;-77
2021/06/30 12:11:35;;;;;;;7.45;6.40;;;16.30;99.90;;;;;;3605068;39;20050;-78
2021/06/30 12:14:09;;;;;;;6.90;5.57;;;16.30;99.90;;;;;;3602156;39;20124;-78
2021/06/30 12:16:42;;;;;;;9.70;5.97;;;16.30;99.90;;;;;;3606562;39;20043;-78
2021/06/30 12:19:16;;;;;;;8.48;5.60;;;16.30;99.90;;;;;;3600447;39;20068;-77
2021/06/30 12:21:43;;;;;;;9.98;5.68;;;16.20;99.90;;;;;;3599805;39;20054;-77
2021/06/30 12:24:17;;;;;;;6.80;5.38;;;16.20;99.90;;;;;;3601815;39;20109;-77
2021/06/30 12:27:07;;;;;;;8.98;6.13;;;16.20;99.90;;;;;;3600389;39;20031;-77
2021/06/30 12:29:37;;;;;;;8.13;5.10;;;16.20;99.90;;;;;;3601816;39;20039;-77
2021/06/30 12:32:06;;;;;;;7.20;5.80;;;16.10;99.90;;;;;;3603926;39;20414;-77
2021/06/30 12:34:33;;;;;;;6.05;5.35;;;16.10;99.90;;;;;;3604762;39;20035;-77
2021/06/30 12:36:59;;;;;;;5.47;4.95;;;16.20;99.90;;;;;;3605015;39;20036;-77
2021/06/30 12:39:31;;;;;;;6.57;4.53;;;16.20;99.90;;;;;;3602382;39;20051;-77
2021/06/30 12:42:06;;;;;;;7.82;4.75;;;16.20;99.90;;;;;;3602192;39;20264;-77
2021/06/30 12:44:59;;;;;;;7.88;5.30;;;16.10;99.90;;;;;;3601432;39;20157;-77
2021/06/30 12:47:26;;;;;;;5.53;3.33;;;16.10;99.90;;;;;;3600903;39;20043;-77
2021/06/30 12:50:25;;;;;;;6.88;5.03;;;16.20;99.90;;;;;;3600613;39;20040;-78
2021/06/30 12:53:03;;;;;;;6.07;4.32;;;16.10;99.90;;;;;;3602829;39;20076;-78